Terminal Aerodrome Forecast
Issued by NWS

Home | Current Version | Previous Version | Text Only | Print | Product List | Glossary On
Versions: 1 2 3 4 5 6 7 8 9 10 11 12 13 14 15 16 17 18 19
000
FTUS43 KABR 240539
TAFPIR
TAF
KPIR 240539Z 2406/2506 12011KT P6SM -SHRA BKN060
     FM240900 04013G21KT 6SM -SHRA OVC025
     FM241500 01016G28KT 6SM -SHRA OVC008
     FM241700 36015G23KT P6SM -SHRA OVC015
     FM242100 35012KT P6SM BKN015
     FM250100 33008KT P6SM SCT040=

USA.gov is the U.S. government's official web portal to all federal, state and local government web resources and services.